sensor_id;sensor_type;location;lat;lon;timestamp;pressure;altitude;pressure_sealevel;temperature;humidity
70468;BME280;57934;51.532;7.684;2022-12-29T00:02:26;99109.94;;;9.06;97.54
70468;BME280;57934;51.532;7.684;2022-12-29T00:04:52;99098.16;;;9.08;97.42
70468;BME280;57934;51.532;7.684;2022-12-29T00:07:18;99093.34;;;9.05;96.98
70468;BME280;57934;51.532;7.684;2022-12-29T00:09:44;99106.09;;;9.02;97.14
70468;BME280;57934;51.532;7.684;2022-12-29T00:12:10;99096.22;;;8.97;97.03
70468;BME280;57934;51.532;7.684;2022-12-29T00:14:36;99103.47;;;9.02;97.70
70468;BME280;57934;51.532;7.684;2022-12-29T00:17:21;99084.06;;;9.03;96.92
70468;BME280;57934;51.532;7.684;2022-12-29T00:19:47;99096.41;;;9.02;97.34
70468;BME280;57934;51.532;7.684;2022-12-29T00:22:31;99082.78;;;9.12;96.96
70468;BME280;57934;51.532;7.684;2022-12-29T00:25:17;99079.91;;;9.20;96.46
70468;BME280;57934;51.532;7.684;2022-12-29T00:28:01;99066.31;;;9.23;95.88
70468;BME280;57934;51.532;7.684;2022-12-29T00:30:45;99070.13;;;9.27;95.76
70468;BME280;57934;51.532;7.684;2022-12-29T00:33:32;99064.22;;;9.32;95.33
70468;BME280;57934;51.532;7.684;2022-12-29T00:36:31;99049.78;;;9.41;94.90
70468;BME280;57934;51.532;7.684;2022-12-29T00:39:10;99052.97;;;9.43;94.57
70468;BME280;57934;51.532;7.684;2022-12-29T00:42:02;99047.72;;;9.43;94.87
70468;BME280;57934;51.532;7.684;2022-12-29T00:44:47;99043.06;;;9.45;94.95
70468;BME280;57934;51.532;7.684;2022-12-29T00:47:13;99042.41;;;9.50;95.46
70468;BME280;57934;51.532;7.684;2022-12-29T00:49:39;99042.63;;;9.48;95.29
70468;BME280;57934;51.532;7.684;2022-12-29T00:52:08;99046.50;;;9.46;96.12
70468;BME280;57934;51.532;7.684;2022-12-29T00:54:37;99057.69;;;9.41;96.70
70468;BME280;57934;51.532;7.684;2022-12-29T00:57:04;99058.31;;;9.37;97.22
70468;BME280;57934;51.532;7.684;2022-12-29T00:59:31;99043.91;;;9.39;97.43
70468;BME280;57934;51.532;7.684;2022-12-29T01:01:57;99047.34;;;9.40;97.54
70468;BME280;57934;51.532;7.684;2022-12-29T01:04:25;99041.28;;;9.39;97.71
70468;BME280;57934;51.532;7.684;2022-12-29T01:06:51;99037.25;;;9.37;98.15
70468;BME280;57934;51.532;7.684;2022-12-29T01:09:18;99037.50;;;9.35;98.06
70468;BME280;57934;51.532;7.684;2022-12-29T01:12:04;99045.00;;;9.31;98.76
70468;BME280;57934;51.532;7.684;2022-12-29T01:14:31;99035.94;;;9.27;98.87
70468;BME280;57934;51.532;7.684;2022-12-29T01:16:57;99023.22;;;9.24;99.20
70468;BME280;57934;51.532;7.684;2022-12-29T01:19:23;99025.25;;;9.22;100.00
70468;BME280;57934;51.532;7.684;2022-12-29T01:21:50;99030.31;;;9.24;99.84
70468;BME280;57934;51.532;7.684;2022-12-29T01:24:17;99021.63;;;9.23;100.00
70468;BME280;57934;51.532;7.684;2022-12-29T01:26:44;99043.09;;;9.20;100.00
70468;BME280;57934;51.532;7.684;2022-12-29T01:29:10;99024.66;;;9.20;100.00
70468;BME280;57934;51.532;7.684;2022-12-29T01:31:37;99034.97;;;9.22;100.00
70468;BME280;57934;51.532;7.684;2022-12-29T01:34:03;99026.50;;;9.20;100.00
70468;BME280;57934;51.532;7.684;2022-12-29T01:36:32;99016.78;;;9.20;100.00
70468;BME280;57934;51.532;7.684;2022-12-29T01:38:58;99023.63;;;9.21;100.00
70468;BME280;57934;51.532;7.684;2022-12-29T01:41:25;99018.59;;;9.20;100.00
70468;BME280;57934;51.532;7.684;2022-12-29T01:43:53;99011.94;;;9.17;100.00
70468;BME280;57934;51.532;7.684;2022-12-29T01:46:30;99015.38;;;9.18;100.00
70468;BME280;57934;51.532;7.684;2022-12-29T01:49:24;99012.31;;;9.21;100.00
70468;BME280;57934;51.532;7.684;2022-12-29T01:51:55;99005.66;;;9.18;100.00
70468;BME280;57934;51.532;7.684;2022-12-29T01:54:32;99000.34;;;9.25;100.00
70468;BME280;57934;51.532;7.684;2022-12-29T01:57:03;99003.56;;;9.27;99.54
70468;BME280;57934;51.532;7.684;2022-12-29T01:59:36;99012.25;;;9.27;99.12
70468;BME280;57934;51.532;7.684;2022-12-29T02:02:04;99010.56;;;9.33;98.79
70468;BME280;57934;51.532;7.684;2022-12-29T02:04:32;99010.94;;;9.37;98.39
70468;BME280;57934;51.532;7.684;2022-12-29T02:07:08;99015.63;;;9.35;98.59
70468;BME280;57934;51.532;7.684;2022-12-29T02:09:35;99002.63;;;9.40;98.64
70468;BME280;57934;51.532;7.684;2022-12-29T02:12:02;98996.56;;;9.39;98.70
70468;BME280;57934;51.532;7.684;2022-12-29T02:14:28;98992.47;;;9.43;98.53
70468;BME280;57934;51.532;7.684;2022-12-29T02:17:19;98988.63;;;9.46;97.97
70468;BME280;57934;51.532;7.684;2022-12-29T02:20:15;98983.94;;;9.48;97.52
70468;BME280;57934;51.532;7.684;2022-12-29T02:26:03;98977.34;;;9.57;96.58
70468;BME280;57934;51.532;7.684;2022-12-29T02:29:05;98971.16;;;9.70;95.33
70468;BME280;57934;51.532;7.684;2022-12-29T02:32:00;98945.56;;;9.77;94.28
70468;BME280;57934;51.532;7.684;2022-12-29T02:34:47;98956.09;;;9.77;93.47
70468;BME280;57934;51.532;7.684;2022-12-29T02:37:23;98951.25;;;9.74;93.28
70468;BME280;57934;51.532;7.684;2022-12-29T02:42:41;98954.31;;;9.71;92.66
70468;BME280;57934;51.532;7.684;2022-12-29T02:50:38;98957.56;;;9.73;92.90
70468;BME280;57934;51.532;7.684;2022-12-29T02:53:09;98956.16;;;9.70;92.59
70468;BME280;57934;51.532;7.684;2022-12-29T02:55:36;98950.31;;;9.68;92.65
70468;BME280;57934;51.532;7.684;2022-12-29T03:00:38;98958.56;;;9.72;92.25
70468;BME280;57934;51.532;7.684;2022-12-29T03:08:48;98960.56;;;9.76;91.55
70468;BME280;57934;51.532;7.684;2022-12-29T03:11:16;98961.13;;;9.78;90.99
70468;BME280;57934;51.532;7.684;2022-12-29T03:14:08;98955.84;;;9.78;90.31
70468;BME280;57934;51.532;7.684;2022-12-29T03:17:00;98949.72;;;9.85;89.71
70468;BME280;57934;51.532;7.684;2022-12-29T03:19:37;98943.41;;;9.86;89.11
70468;BME280;57934;51.532;7.684;2022-12-29T03:22:12;98943.78;;;9.89;89.05
70468;BME280;57934;51.532;7.684;2022-12-29T03:25:10;98951.47;;;9.91;88.37
70468;BME280;57934;51.532;7.684;2022-12-29T03:27:44;98952.97;;;9.98;88.00
70468;BME280;57934;51.532;7.684;2022-12-29T03:30:11;98967.66;;;10.06;87.41
70468;BME280;57934;51.532;7.684;2022-12-29T03:32:42;98958.44;;;10.15;86.77
70468;BME280;57934;51.532;7.684;2022-12-29T03:35:13;98949.47;;;10.04;87.93
70468;BME280;57934;51.532;7.684;2022-12-29T03:37:49;98959.53;;;9.77;89.67
70468;BME280;57934;51.532;7.684;2022-12-29T03:40:16;98956.91;;;9.59;91.55
70468;BME280;57934;51.532;7.684;2022-12-29T03:42:44;98960.69;;;9.45;92.75
70468;BME280;57934;51.532;7.684;2022-12-29T03:45:11;98959.38;;;9.36;94.51
70468;BME280;57934;51.532;7.684;2022-12-29T03:47:37;98956.44;;;9.25;96.08
70468;BME280;57934;51.532;7.684;2022-12-29T03:50:05;98948.22;;;9.15;96.65
70468;BME280;57934;51.532;7.684;2022-12-29T03:52:35;98945.22;;;9.12;97.30
70468;BME280;57934;51.532;7.684;2022-12-29T03:55:01;98943.03;;;9.08;97.67
70468;BME280;57934;51.532;7.684;2022-12-29T03:57:27;98935.00;;;9.03;98.20
70468;BME280;57934;51.532;7.684;2022-12-29T03:59:58;98937.81;;;9.02;98.11
70468;BME280;57934;51.532;7.684;2022-12-29T04:02:24;98936.66;;;8.98;98.02
70468;BME280;57934;51.532;7.684;2022-12-29T04:04:51;98934.41;;;9.01;97.82
70468;BME280;57934;51.532;7.684;2022-12-29T04:07:17;98939.66;;;9.01;98.26
70468;BME280;57934;51.532;7.684;2022-12-29T04:09:43;98930.19;;;9.00;98.31
70468;BME280;57934;51.532;7.684;2022-12-29T04:12:15;98928.34;;;9.01;98.81
70468;BME280;57934;51.532;7.684;2022-12-29T04:14:41;98919.66;;;9.00;98.56
70468;BME280;57934;51.532;7.684;2022-12-29T04:17:07;98923.50;;;8.98;99.02
70468;BME280;57934;51.532;7.684;2022-12-29T04:19:33;98923.50;;;8.98;99.59
70468;BME280;57934;51.532;7.684;2022-12-29T04:22:00;98931.41;;;8.98;99.71
70468;BME280;57934;51.532;7.684;2022-12-29T04:24:26;98930.97;;;9.01;100.00
70468;BME280;57934;51.532;7.684;2022-12-29T04:26:52;98920.47;;;9.01;100.00
70468;BME280;57934;51.532;7.684;2022-12-29T04:29:38;98904.91;;;8.99;100.00
70468;BME280;57934;51.532;7.684;2022-12-29T04:32:04;98914.41;;;9.00;100.00
70468;BME280;57934;51.532;7.684;2022-12-29T04:34:32;98905.91;;;8.98;100.00
70468;BME280;57934;51.532;7.684;2022-12-29T04:36:59;98892.94;;;9.03;100.00
70468;BME280;57934;51.532;7.684;2022-12-29T04:39:25;98873.72;;;9.03;99.77
70468;BME280;57934;51.532;7.684;2022-12-29T04:41:52;98883.22;;;9.04;99.79
70468;BME280;57934;51.532;7.684;2022-12-29T04:44:20;98868.25;;;9.04;99.41
70468;BME280;57934;51.532;7.684;2022-12-29T04:46:52;98867.59;;;9.09;99.06
70468;BME280;57934;51.532;7.684;2022-12-29T04:49:36;98862.53;;;9.07;98.54
70468;BME280;57934;51.532;7.684;2022-12-29T04:52:21;98870.06;;;9.04;98.11
70468;BME280;57934;51.532;7.684;2022-12-29T04:54:47;98869.19;;;9.10;97.69
70468;BME280;57934;51.532;7.684;2022-12-29T04:57:18;98874.97;;;9.19;97.15
70468;BME280;57934;51.532;7.684;2022-12-29T04:59:49;98867.44;;;9.22;96.66
70468;BME280;57934;51.532;7.684;2022-12-29T05:02:16;98877.75;;;9.24;96.21
70468;BME280;57934;51.532;7.684;2022-12-29T05:04:44;98881.25;;;9.36;95.71
70468;BME280;57934;51.532;7.684;2022-12-29T05:07:10;98881.78;;;9.45;94.99
70468;BME280;57934;51.532;7.684;2022-12-29T05:09:37;98879.06;;;9.51;94.15
70468;BME280;57934;51.532;7.684;2022-12-29T05:12:03;98887.75;;;9.52;94.01
70468;BME280;57934;51.532;7.684;2022-12-29T05:14:31;98882.41;;;9.59;93.31
70468;BME280;57934;51.532;7.684;2022-12-29T05:16:57;98889.03;;;9.61;93.32
70468;BME280;57934;51.532;7.684;2022-12-29T05:19:24;98888.25;;;9.61;93.90
70468;BME280;57934;51.532;7.684;2022-12-29T05:21:50;98885.03;;;9.59;93.75
70468;BME280;57934;51.532;7.684;2022-12-29T05:24:16;98894.09;;;9.63;92.39
70468;BME280;57934;51.532;7.684;2022-12-29T05:26:42;98882.78;;;9.62;92.79
70468;BME280;57934;51.532;7.684;2022-12-29T05:29:31;98896.28;;;9.66;92.59
70468;BME280;57934;51.532;7.684;2022-12-29T05:31:58;98895.97;;;9.74;91.13
70468;BME280;57934;51.532;7.684;2022-12-29T05:34:24;98885.38;;;9.80;90.43
70468;BME280;57934;51.532;7.684;2022-12-29T05:36:50;98903.13;;;9.85;90.39
70468;BME280;57934;51.532;7.684;2022-12-29T05:39:16;98898.75;;;9.79;90.28
70468;BME280;57934;51.532;7.684;2022-12-29T05:41:47;98894.75;;;9.76;90.47
70468;BME280;57934;51.532;7.684;2022-12-29T05:44:27;98893.47;;;9.79;89.61
70468;BME280;57934;51.532;7.684;2022-12-29T05:47:16;98893.63;;;9.84;89.23
70468;BME280;57934;51.532;7.684;2022-12-29T05:49:51;98898.81;;;9.91;88.38
70468;BME280;57934;51.532;7.684;2022-12-29T05:52:32;98911.22;;;10.02;87.45
70468;BME280;57934;51.532;7.684;2022-12-29T05:54:58;98924.06;;;10.10;87.10
70468;BME280;57934;51.532;7.684;2022-12-29T05:57:26;98919.66;;;10.22;85.54
70468;BME280;57934;51.532;7.684;2022-12-29T06:00:18;98919.78;;;10.27;85.81
70468;BME280;57934;51.532;7.684;2022-12-29T06:02:46;98925.56;;;10.36;85.25
70468;BME280;57934;51.532;7.684;2022-12-29T06:05:12;98939.19;;;10.33;85.11
70468;BME280;57934;51.532;7.684;2022-12-29T06:07:39;98932.53;;;10.42;84.29
70468;BME280;57934;51.532;7.684;2022-12-29T06:10:06;98920.75;;;10.45;83.39
70468;BME280;57934;51.532;7.684;2022-12-29T06:12:40;98916.72;;;10.42;83.35
70468;BME280;57934;51.532;7.684;2022-12-29T06:15:06;98930.81;;;10.36;83.42
70468;BME280;57934;51.532;7.684;2022-12-29T06:17:33;98931.97;;;10.29;83.54
70468;BME280;57934;51.532;7.684;2022-12-29T06:19:59;98928.72;;;10.26;83.00
70468;BME280;57934;51.532;7.684;2022-12-29T06:22:25;98918.19;;;10.26;82.55
70468;BME280;57934;51.532;7.684;2022-12-29T06:24:52;98932.06;;;10.34;82.09
70468;BME280;57934;51.532;7.684;2022-12-29T06:27:19;98933.09;;;10.33;81.59
70468;BME280;57934;51.532;7.684;2022-12-29T06:29:45;98929.88;;;10.31;82.40
70468;BME280;57934;51.532;7.684;2022-12-29T06:32:12;98933.56;;;10.30;83.21
70468;BME280;57934;51.532;7.684;2022-12-29T06:34:43;98938.38;;;10.33;83.10
70468;BME280;57934;51.532;7.684;2022-12-29T06:37:11;98949.28;;;10.36;82.70
70468;BME280;57934;51.532;7.684;2022-12-29T06:39:37;98951.22;;;10.41;82.80
70468;BME280;57934;51.532;7.684;2022-12-29T06:42:06;98941.28;;;10.43;82.55
70468;BME280;57934;51.532;7.684;2022-12-29T06:44:51;98959.13;;;10.41;82.29
70468;BME280;57934;51.532;7.684;2022-12-29T06:47:18;98948.22;;;10.37;82.08
70468;BME280;57934;51.532;7.684;2022-12-29T06:49:44;98962.78;;;10.40;81.86
70468;BME280;57934;51.532;7.684;2022-12-29T06:52:11;98943.31;;;10.41;81.66
70468;BME280;57934;51.532;7.684;2022-12-29T06:54:37;98972.06;;;10.42;80.79
70468;BME280;57934;51.532;7.684;2022-12-29T06:57:03;98969.44;;;10.42;80.88
70468;BME280;57934;51.532;7.684;2022-12-29T06:59:29;98975.66;;;10.48;80.70
70468;BME280;57934;51.532;7.684;2022-12-29T07:01:55;98984.94;;;10.50;80.41
70468;BME280;57934;51.532;7.684;2022-12-29T07:04:21;98992.75;;;10.57;79.55
70468;BME280;57934;51.532;7.684;2022-12-29T07:06:47;99000.88;;;10.56;80.03
70468;BME280;57934;51.532;7.684;2022-12-29T07:09:13;99018.53;;;10.55;79.89
70468;BME280;57934;51.532;7.684;2022-12-29T07:11:39;99017.38;;;10.51;80.54
70468;BME280;57934;51.532;7.684;2022-12-29T07:14:05;99003.59;;;10.49;80.38
70468;BME280;57934;51.532;7.684;2022-12-29T07:16:31;99002.34;;;10.51;79.38
70468;BME280;57934;51.532;7.684;2022-12-29T07:18:58;99000.06;;;10.55;79.10
70468;BME280;57934;51.532;7.684;2022-12-29T07:21:25;99004.78;;;10.53;78.63
70468;BME280;57934;51.532;7.684;2022-12-29T07:23:51;98986.78;;;10.50;78.49
70468;BME280;57934;51.532;7.684;2022-12-29T07:26:17;99004.78;;;10.53;78.37
70468;BME280;57934;51.532;7.684;2022-12-29T07:28:44;99007.19;;;10.55;78.55
70468;BME280;57934;51.532;7.684;2022-12-29T07:31:20;99010.97;;;10.59;78.02
70468;BME280;57934;51.532;7.684;2022-12-29T07:33:47;99017.59;;;10.49;78.85
70468;BME280;57934;51.532;7.684;2022-12-29T07:36:15;99012.19;;;10.44;78.98
70468;BME280;57934;51.532;7.684;2022-12-29T07:38:41;99018.69;;;10.42;79.08
70468;BME280;57934;51.532;7.684;2022-12-29T07:41:08;99030.94;;;10.36;79.14
70468;BME280;57934;51.532;7.684;2022-12-29T07:43:35;99017.78;;;10.36;78.83
70468;BME280;57934;51.532;7.684;2022-12-29T07:46:28;99026.47;;;10.37;78.60
70468;BME280;57934;51.532;7.684;2022-12-29T07:48:54;99036.44;;;10.35;78.54
70468;BME280;57934;51.532;7.684;2022-12-29T07:51:20;99032.78;;;10.36;78.60
70468;BME280;57934;51.532;7.684;2022-12-29T07:53:46;99044.69;;;10.38;77.77
70468;BME280;57934;51.532;7.684;2022-12-29T07:56:12;99053.88;;;10.36;77.87
70468;BME280;57934;51.532;7.684;2022-12-29T07:58:38;99044.94;;;10.37;77.23
70468;BME280;57934;51.532;7.684;2022-12-29T08:01:04;99067.13;;;10.29;78.36
70468;BME280;57934;51.532;7.684;2022-12-29T08:03:31;99061.31;;;10.20;78.57
70468;BME280;57934;51.532;7.684;2022-12-29T08:05:57;99061.75;;;10.17;78.40
70468;BME280;57934;51.532;7.684;2022-12-29T08:08:23;99051.19;;;10.17;78.43
70468;BME280;57934;51.532;7.684;2022-12-29T08:10:49;99084.66;;;10.17;77.91
70468;BME280;57934;51.532;7.684;2022-12-29T08:13:15;99091.50;;;10.18;78.27
70468;BME280;57934;51.532;7.684;2022-12-29T08:15:42;99093.94;;;10.19;78.20
70468;BME280;57934;51.532;7.684;2022-12-29T08:18:08;99087.44;;;10.22;78.05
70468;BME280;57934;51.532;7.684;2022-12-29T08:20:34;99090.28;;;10.20;78.81
70468;BME280;57934;51.532;7.684;2022-12-29T08:23:00;99095.53;;;10.20;78.88
70468;BME280;57934;51.532;7.684;2022-12-29T08:25:26;99090.28;;;10.20;79.56
70468;BME280;57934;51.532;7.684;2022-12-29T08:27:52;99098.53;;;10.24;78.02
70468;BME280;57934;51.532;7.684;2022-12-29T08:30:18;99096.53;;;10.26;77.39
70468;BME280;57934;51.532;7.684;2022-12-29T08:32:45;99091.28;;;10.26;77.60
70468;BME280;57934;51.532;7.684;2022-12-29T08:35:11;99109.03;;;10.31;77.73
70468;BME280;57934;51.532;7.684;2022-12-29T08:37:38;99106.41;;;10.31;76.20
70468;BME280;57934;51.532;7.684;2022-12-29T08:40:05;99105.97;;;10.34;76.58
70468;BME280;57934;51.532;7.684;2022-12-29T08:42:32;99097.03;;;10.35;74.83
70468;BME280;57934;51.532;7.684;2022-12-29T08:44:58;99089.19;;;10.46;74.15
70468;BME280;57934;51.532;7.684;2022-12-29T08:47:26;99088.75;;;10.49;74.04
70468;BME280;57934;51.532;7.684;2022-12-29T08:49:52;99083.25;;;10.51;74.72
70468;BME280;57934;51.532;7.684;2022-12-29T08:52:18;99089.31;;;10.51;73.65
70468;BME280;57934;51.532;7.684;2022-12-29T08:54:44;99098.94;;;10.46;71.97
70468;BME280;57934;51.532;7.684;2022-12-29T08:57:11;99091.03;;;10.46;72.32
70468;BME280;57934;51.532;7.684;2022-12-29T08:59:47;99103.66;;;10.56;72.70
70468;BME280;57934;51.532;7.684;2022-12-29T09:02:14;99098.19;;;10.57;72.87
70468;BME280;57934;51.532;7.684;2022-12-29T09:04:40;99088.88;;;10.55;72.93
70468;BME280;57934;51.532;7.684;2022-12-29T09:07:06;99099.56;;;10.60;72.66
70468;BME280;57934;51.532;7.684;2022-12-29T09:09:33;99097.06;;;10.65;73.02
70468;BME280;57934;51.532;7.684;2022-12-29T09:11:59;99091.44;;;10.61;73.12
70468;BME280;57934;51.532;7.684;2022-12-29T09:14:25;99104.63;;;10.61;73.51
70468;BME280;57934;51.532;7.684;2022-12-29T09:16:51;99102.34;;;10.65;73.45
70468;BME280;57934;51.532;7.684;2022-12-29T09:19:37;99108.38;;;10.54;74.30
70468;BME280;57934;51.532;7.684;2022-12-29T09:22:03;99126.81;;;10.35;76.68
70468;BME280;57934;51.532;7.684;2022-12-29T09:24:29;99123.75;;;9.76;81.63
70468;BME280;57934;51.532;7.684;2022-12-29T09:26:55;99131.53;;;9.40;83.95
70468;BME280;57934;51.532;7.684;2022-12-29T09:29:21;99118.97;;;9.17;84.40
70468;BME280;57934;51.532;7.684;2022-12-29T09:31:47;99129.38;;;8.98;85.61
70468;BME280;57934;51.532;7.684;2022-12-29T09:34:13;99154.75;;;8.86;86.31
70468;BME280;57934;51.532;7.684;2022-12-29T09:36:40;99134.34;;;8.81;86.87
70468;BME280;57934;51.532;7.684;2022-12-29T09:39:07;99141.22;;;8.82;86.90
70468;BME280;57934;51.532;7.684;2022-12-29T09:41:52;99149.09;;;8.82;87.39
70468;BME280;57934;51.532;7.684;2022-12-29T09:44:28;99159.22;;;8.79;87.03
70468;BME280;57934;51.532;7.684;2022-12-29T09:46:57;99165.22;;;8.93;86.67
70468;BME280;57934;51.532;7.684;2022-12-29T09:49:39;99169.22;;;9.33;84.74
70468;BME280;57934;51.532;7.684;2022-12-29T09:52:14;99168.34;;;9.71;82.13
70468;BME280;57934;51.532;7.684;2022-12-29T09:54:47;99151.16;;;9.94;81.16
70468;BME280;57934;51.532;7.684;2022-12-29T09:57:23;99153.50;;;10.02;79.91
70468;BME280;57934;51.532;7.684;2022-12-29T09:59:54;99155.63;;;9.93;79.84
70468;BME280;57934;51.532;7.684;2022-12-29T10:04:54;99142.75;;;9.78;80.35
70468;BME280;57934;51.532;7.684;2022-12-29T10:07:30;99141.28;;;10.08;79.17
70468;BME280;57934;51.532;7.684;2022-12-29T10:10:07;99146.72;;;10.31;78.57
70468;BME280;57934;51.532;7.684;2022-12-29T10:20:56;99153.78;;;10.12;79.88
70468;BME280;57934;51.532;7.684;2022-12-29T10:26:21;99145.13;;;10.48;77.98
70468;BME280;57934;51.532;7.684;2022-12-29T10:28:59;99135.66;;;10.59;76.75
70468;BME280;57934;51.532;7.684;2022-12-29T10:31:39;99150.00;;;10.63;77.14
70468;BME280;57934;51.532;7.684;2022-12-29T10:34:22;99143.81;;;10.88;74.79
70468;BME280;57934;51.532;7.684;2022-12-29T10:37:09;99135.53;;;10.84;73.49
70468;BME280;57934;51.532;7.684;2022-12-29T10:39:53;99130.06;;;10.86;73.88
70468;BME280;57934;51.532;7.684;2022-12-29T10:42:27;99135.09;;;10.87;73.22
70468;BME280;57934;51.532;7.684;2022-12-29T10:44:54;99144.75;;;10.93;71.95
70468;BME280;57934;51.532;7.684;2022-12-29T10:47:28;99144.41;;;10.90;71.19
70468;BME280;57934;51.532;7.684;2022-12-29T10:49:56;99138.06;;;10.79;71.04
70468;BME280;57934;51.532;7.684;2022-12-29T10:52:24;99138.84;;;10.80;71.17
70468;BME280;57934;51.532;7.684;2022-12-29T10:55:08;99129.16;;;10.92;70.81
70468;BME280;57934;51.532;7.684;2022-12-29T10:57:42;99130.06;;;11.28;70.39
70468;BME280;57934;51.532;7.684;2022-12-29T11:00:18;99137.50;;;11.19;67.87
70468;BME280;57934;51.532;7.684;2022-12-29T11:03:23;99147.25;;;11.18;69.05
70468;BME280;57934;51.532;7.684;2022-12-29T11:06:25;99143.28;;;11.28;68.53
70468;BME280;57934;51.532;7.684;2022-12-29T11:09:09;99148.75;;;11.26;68.09
70468;BME280;57934;51.532;7.684;2022-12-29T11:11:38;99143.84;;;11.30;68.02
70468;BME280;57934;51.532;7.684;2022-12-29T11:14:14;99149.19;;;11.23;67.48
70468;BME280;57934;51.532;7.684;2022-12-29T11:16:41;99156.19;;;11.17;67.77
70468;BME280;57934;51.532;7.684;2022-12-29T11:19:33;99152.94;;;11.04;68.15
70468;BME280;57934;51.532;7.684;2022-12-29T11:22:21;99155.22;;;11.00;68.31
70468;BME280;57934;51.532;7.684;2022-12-29T11:24:50;99152.06;;;10.91;68.09
70468;BME280;57934;51.532;7.684;2022-12-29T11:27:19;99162.75;;;10.85;69.02
70468;BME280;57934;51.532;7.684;2022-12-29T11:29:50;99162.94;;;10.83;69.34
70468;BME280;57934;51.532;7.684;2022-12-29T11:32:19;99173.50;;;10.83;68.65
70468;BME280;57934;51.532;7.684;2022-12-29T11:34:47;99143.69;;;10.83;68.47
70468;BME280;57934;51.532;7.684;2022-12-29T11:39:58;99164.88;;;10.76;69.54
70468;BME280;57934;51.532;7.684;2022-12-29T11:42:50;99180.19;;;10.67;69.41
70468;BME280;57934;51.532;7.684;2022-12-29T11:45:23;99180.63;;;10.64;69.67
70468;BME280;57934;51.532;7.684;2022-12-29T11:47:57;99174.56;;;10.64;69.46
70468;BME280;57934;51.532;7.684;2022-12-29T11:50:37;99179.59;;;10.65;69.92
70468;BME280;57934;51.532;7.684;2022-12-29T11:53:17;99181.78;;;10.68;70.32
70468;BME280;57934;51.532;7.684;2022-12-29T11:56:06;99194.00;;;10.63;69.16
70468;BME280;57934;51.532;7.684;2022-12-29T11:58:36;99193.56;;;10.66;69.67
70468;BME280;57934;51.532;7.684;2022-12-29T12:06:20;99198.56;;;10.56;69.97
70468;BME280;57934;51.532;7.684;2022-12-29T12:08:56;99206.34;;;10.50;69.86
70468;BME280;57934;51.532;7.684;2022-12-29T12:11:34;99197.75;;;10.55;70.60
70468;BME280;57934;51.532;7.684;2022-12-29T12:14:55;99217.00;;;10.56;69.99
70468;BME280;57934;51.532;7.684;2022-12-29T12:17:22;99214.47;;;10.67;69.44
70468;BME280;57934;51.532;7.684;2022-12-29T12:22:35;99195.06;;;10.62;69.07
70468;BME280;57934;51.532;7.684;2022-12-29T12:27:57;99224.47;;;10.59;69.46
70468;BME280;57934;51.532;7.684;2022-12-29T12:30:29;99222.38;;;10.67;68.81
70468;BME280;57934;51.532;7.684;2022-12-29T12:33:04;99216.94;;;10.62;68.46
70468;BME280;57934;51.532;7.684;2022-12-29T12:43:34;99207.28;;;10.56;68.14
70468;BME280;57934;51.532;7.684;2022-12-29T12:46:06;99240.91;;;10.61;68.32
70468;BME280;57934;51.532;7.684;2022-12-29T12:49:02;99232.91;;;10.67;68.41
70468;BME280;57934;51.532;7.684;2022-12-29T12:59:49;99240.31;;;10.59;67.93
70468;BME280;57934;51.532;7.684;2022-12-29T16:21:31;99394.78;;;9.58;70.37
70468;BME280;57934;51.532;7.684;2022-12-29T16:24:02;99389.31;;;9.60;70.46
70468;BME280;57934;51.532;7.684;2022-12-29T16:26:30;99402.47;;;9.60;70.08
70468;BME280;57934;51.532;7.684;2022-12-29T16:28:58;99410.38;;;9.60;70.13
70468;BME280;57934;51.532;7.684;2022-12-29T16:31:36;99407.75;;;9.53;70.20
70468;BME280;57934;51.532;7.684;2022-12-29T16:34:42;99413.03;;;9.53;70.35
70468;BME280;57934;51.532;7.684;2022-12-29T16:37:28;99414.47;;;9.49;70.52
70468;BME280;57934;51.532;7.684;2022-12-29T16:39:55;99411.81;;;9.49;71.03
70468;BME280;57934;51.532;7.684;2022-12-29T16:47:46;99413.28;;;9.31;70.70
70468;BME280;57934;51.532;7.684;2022-12-29T16:50:17;99424.44;;;9.20;70.92
70468;BME280;57934;51.532;7.684;2022-12-29T16:52:50;99423.44;;;9.15;71.19
70468;BME280;57934;51.532;7.684;2022-12-29T16:55:18;99416.38;;;9.08;71.55
70468;BME280;57934;51.532;7.684;2022-12-29T16:57:46;99423.03;;;9.04;71.80
70468;BME280;57934;51.532;7.684;2022-12-29T17:00:21;99425.09;;;8.96;72.00
70468;BME280;57934;51.532;7.684;2022-12-29T17:02:52;99426.09;;;8.95;72.40
70468;BME280;57934;51.532;7.684;2022-12-29T17:05:20;99432.38;;;8.94;72.41
70468;BME280;57934;51.532;7.684;2022-12-29T17:07:46;99431.34;;;9.01;72.22
70468;BME280;57934;51.532;7.684;2022-12-29T17:10:13;99442.47;;;9.10;71.73
70468;BME280;57934;51.532;7.684;2022-12-29T17:12:42;99431.94;;;9.10;71.67
70468;BME280;57934;51.532;7.684;2022-12-29T17:17:46;99443.69;;;9.14;71.48
70468;BME280;57934;51.532;7.684;2022-12-29T17:22:47;99446.13;;;9.02;71.70
70468;BME280;57934;51.532;7.684;2022-12-29T17:25:16;99446.94;;;9.03;71.28
70468;BME280;57934;51.532;7.684;2022-12-29T17:27:47;99451.97;;;9.04;71.25
70468;BME280;57934;51.532;7.684;2022-12-29T17:30:20;99457.44;;;9.03;71.04
70468;BME280;57934;51.532;7.684;2022-12-29T17:32:51;99458.03;;;9.05;70.88
70468;BME280;57934;51.532;7.684;2022-12-29T17:35:19;99462.88;;;9.15;71.00
70468;BME280;57934;51.532;7.684;2022-12-29T17:37:46;99459.06;;;9.17;70.69
70468;BME280;57934;51.532;7.684;2022-12-29T17:40:19;99459.63;;;9.19;69.85
70468;BME280;57934;51.532;7.684;2022-12-29T17:42:47;99459.44;;;9.21;69.99
70468;BME280;57934;51.532;7.684;2022-12-29T17:45:16;99461.28;;;9.14;69.94
70468;BME280;57934;51.532;7.684;2022-12-29T17:47:43;99472.19;;;9.17;69.70
70468;BME280;57934;51.532;7.684;2022-12-29T17:50:12;99472.78;;;9.19;70.00
70468;BME280;57934;51.532;7.684;2022-12-29T17:52:40;99473.81;;;9.18;69.99
70468;BME280;57934;51.532;7.684;2022-12-29T17:55:16;99476.84;;;9.22;70.46
70468;BME280;57934;51.532;7.684;2022-12-29T17:57:43;99483.94;;;9.21;70.48
70468;BME280;57934;51.532;7.684;2022-12-29T18:00:14;99483.31;;;9.19;70.20
70468;BME280;57934;51.532;7.684;2022-12-29T18:02:41;99501.13;;;9.17;70.48